M I D A S
Marine Information and Data Acquisition System
Tripno 1959 of the Zeeleeuw from 2010-09-10 06:21:14 to 2010-09-10 13:56:12
Back to CruiseResearch ActivitiesStationsMapUnderway DataData graphs

EquipmentUnitsComments
TimeDGPSUTC
LatitudeDGPSDM.mWGS84
LongitudeDGPSDM.mWGS84
SpeedMeteo Stationm/sRelative wind speed
DirectionMeteo StationdegRelative wind direction
TemperatureMeteo Stationdeg CelciusAir temperature
PressureMeteo StationPaAtmospheric pressure
HumidityMeteo Station%Relative humidity
Missing or incorrect values are displayed as -999
Metereological data collected by the RV Zeeleeuw from 2010-09-10 06:23:44 to 2010-09-10 14:10:37
Time Latitude Longitude Speed Direction Temperature Pressure Humidity
2010-09-10 06:24 51°13.665 2°55.946 3.4 42 15.3 101970 46
2010-09-10 06:25 51°13.686 2°55.869 3 43 15.3 101970 47
2010-09-10 06:26 51°13.695 2°55.763 3.4 41 15.3 101960 47
2010-09-10 06:27 51°13.701 2°55.742 2.7 22 15.3 101970 46
2010-09-10 06:28 51°13.706 2°55.754 3.6 27 15.4 101970 46
2010-09-10 06:29 51°13.732 2°55.74 1 21 15.4 101970 47
2010-09-10 06:30 51°13.806 2°55.656 4.5 21 15.4 101970 46
2010-09-10 06:31 51°13.9 2°55.577 4.1 318 15.4 101970 49
2010-09-10 06:32 51°14.038 2°55.475 3.8 344 15.4 101970 46
2010-09-10 06:33 51°14.193 2°55.352 4.9 22 15.5 101970 47
2010-09-10 06:34 51°14.352 2°55.211 6.3 21 15.5 101960 48
2010-09-10 06:35 51°14.519 2°55.05 7.5 24 15.6 101950 47
2010-09-10 06:36 51°14.672 2°54.808 11.3 28 15.7 101950 47
2010-09-10 06:37 51°14.742 2°54.466 12.3 20 15.8 101940 47
2010-09-10 06:38 51°14.798 2°54.113 13.6 19 15.9 101930 48
2010-09-10 06:39 51°14.838 2°53.755 13.7 316 16 101930 48
2010-09-10 06:40 51°14.883 2°53.395 11 27 16 101930 48
2010-09-10 06:41 51°14.923 2°53.031 12.4 21 16.1 101940 48
2010-09-10 06:42 51°14.931 2°52.66 11.9 318 16.1 101930 48
2010-09-10 06:43 51°14.94 2°52.289 11.6 319 16.2 101930 47
2010-09-10 06:44 51°14.949 2°51.918 14.2 318 16.3 101930 47
2010-09-10 06:45 51°14.96 2°51.546 12.2 319 16.3 101930 47
2010-09-10 06:46 51°14.974 2°51.177 13 21 16.3 101910 48
2010-09-10 06:47 51°15.072 2°50.855 11.1 22 16.3 101940 47
2010-09-10 06:48 51°15.208 2°50.567 11 26 16.4 101940 47
2010-09-10 06:49 51°15.352 2°50.288 9.8 26 16.4 101930 47
2010-09-10 06:50 51°15.457 2°50.097 8.9 26 16.4 101950 48
2010-09-10 06:51 51°15.477 2°50.003 7.3 27 16.4 101950 49
2010-09-10 06:52 51°15.474 2°49.985 8.2 24 16.6 101960 47
2010-09-10 06:53 51°15.472 2°49.97 8.4 251 16.6 101960 48
2010-09-10 06:54 51°15.469 2°49.953 6.7 261 16.5 101960 47
2010-09-10 06:55 51°15.465 2°49.936 5.1 264 16.6 101970 47
2010-09-10 06:56 51°15.462 2°49.918 5.2 268 16.6 101970 48
2010-09-10 06:57 51°15.459 2°49.9 5.8 269 16.5 101970 48
2010-09-10 06:58 51°15.455 2°49.883 6.1 270 16.6 101970 48
2010-09-10 06:59 51°15.452 2°49.866 5.3 270 16.6 101970 47
2010-09-10 07:00 51°15.456 2°49.844 6.1 258 16.6 101970 47
2010-09-10 07:01 51°15.468 2°49.734 9.2 323 16.6 101940 47
2010-09-10 07:02 51°15.405 2°49.573 9.4 335 16.6 101950 48
2010-09-10 07:03 51°15.309 2°49.39 11.3 331 16.6 101950 48
2010-09-10 07:04 51°15.221 2°49.267 8.8 357 16.6 101950 47
2010-09-10 07:05 51°15.155 2°49.304 7.6 17 16.6 101940 47
2010-09-10 07:06 51°15.143 2°49.375 3.3 23 16.6 101960 46
2010-09-10 07:07 51°15.189 2°49.413 5 27 16.7 101960 47
2010-09-10 07:08 51°15.237 2°49.463 2.9 23 16.7 101960 49
2010-09-10 07:09 51°15.274 2°49.53 2.1 21 16.9 101960 47
2010-09-10 07:10 51°15.318 2°49.584 4.6 25 17 101960 46
2010-09-10 07:11 51°15.363 2°49.639 2 28 16.9 101960 49
2010-09-10 07:12 51°15.405 2°49.697 3.6 24 17 101970 46
2010-09-10 07:13 51°15.443 2°49.76 2.4 22 17.1 101960 49
2010-09-10 07:14 51°15.47 2°49.833 5.1 24 17.1 101960 47
2010-09-10 07:15 51°15.495 2°49.908 4.8 21 17 101960 46
2010-09-10 07:16 51°15.516 2°49.986 5.9 28 17 101970 46
2010-09-10 07:17 51°15.531 2°50.074 5.6 27 16.9 101960 47
2010-09-10 07:19 51°15.533 2°50.238 5.6 33 16.7 -999 32
2010-09-10 07:20 51°15.52 2°50.32 6.1 36 16.7 101970 50
2010-09-10 07:21 51°15.5 2°50.392 7 26 16.8 101970 51
2010-09-10 07:22 51°15.462 2°50.444 7.6 22 16.7 101970 47
2010-09-10 07:23 51°15.411 2°50.471 9 10 16.8 101970 49
2010-09-10 07:24 51°15.351 2°50.468 7.2 357 16.8 101960 49
2010-09-10 07:25 51°15.295 2°50.43 7.2 349 16.8 101950 48
2010-09-10 07:26 51°15.251 2°50.387 8.5 347 16.8 101960 48
2010-09-10 07:27 51°15.218 2°50.338 8.1 336 16.7 101960 48
2010-09-10 07:28 51°15.189 2°50.265 8.1 330 16.7 101960 47
2010-09-10 07:29 51°15.16 2°50.148 9.7 330 16.8 101950 47
2010-09-10 07:30 51°15.084 2°49.934 12.3 332 16.8 101940 46
2010-09-10 07:31 51°15.013 2°49.788 8.7 336 16.8 101950 47
2010-09-10 07:32 51°14.979 2°49.691 8.7 326 16.9 101970 47
2010-09-10 07:33 51°14.943 2°49.614 8.3 351 16.9 101960 47
2010-09-10 07:34 51°14.886 2°49.634 6.7 40 16.9 101960 46
2010-09-10 07:35 51°14.898 2°49.777 2.8 35 16.9 101980 46
2010-09-10 07:36 51°14.883 2°49.996 4.2 25 16.8 101980 46
2010-09-10 07:37 51°14.854 2°50.237 4.2 19 16.8 101980 48
2010-09-10 07:38 51°14.824 2°50.511 4.3 18 16.8 101990 47
2010-09-10 07:39 51°14.806 2°50.779 3.3 27 16.8 101990 46
2010-09-10 07:40 51°14.796 2°51.054 3.7 26 16.8 101990 46
2010-09-10 07:41 51°14.754 2°51.263 5.9 17 16.8 101990 46
2010-09-10 07:42 51°14.716 2°51.431 4.8 40 16.8 101990 46
2010-09-10 07:43 51°14.745 2°51.508 6.8 23 16.8 101990 46
2010-09-10 07:44 51°14.777 2°51.51 5.4 268 16.8 101990 46
2010-09-10 07:45 51°14.774 2°51.493 4.6 263 16.8 101980 48
2010-09-10 07:46 51°14.769 2°51.478 6.3 263 16.8 101980 45
2010-09-10 07:47 51°14.76 2°51.463 5.6 262 16.8 101980 46
2010-09-10 07:48 51°14.751 2°51.451 5.5 261 16.8 101980 46
2010-09-10 07:49 51°14.741 2°51.442 4.9 268 16.9 101990 46
2010-09-10 07:50 51°14.728 2°51.431 4.8 263 16.9 101990 48
2010-09-10 07:51 51°14.715 2°51.42 6.5 27 16.8 101990 48
2010-09-10 07:52 51°14.701 2°51.407 6.5 269 16.8 101980 46
2010-09-10 07:53 51°14.712 2°51.373 6.9 26 16.8 101980 48
2010-09-10 07:54 51°14.697 2°51.247 9 333 16.8 101980 45
2010-09-10 07:55 51°14.597 2°51.122 8.9 341 16.8 101970 48
2010-09-10 07:56 51°14.487 2°51.033 8.6 334 16.7 101970 48
2010-09-10 07:57 51°14.459 2°50.901 8.6 21 16.7 101980 48
2010-09-10 07:58 51°14.504 2°50.834 5.1 270 16.7 101980 48
2010-09-10 07:59 51°14.546 2°50.865 4.1 26 16.8 102000 46
2010-09-10 08:00 51°14.583 2°50.93 2.8 22 16.7 102000 46
2010-09-10 08:01 51°14.625 2°50.994 3.1 22 16.8 102000 46
2010-09-10 08:02 51°14.663 2°51.057 2.6 24 16.7 102000 47
2010-09-10 08:03 51°14.691 2°51.123 3.1 24 16.7 102000 46
2010-09-10 08:04 51°14.716 2°51.191 3.5 27 16.7 102000 49
2010-09-10 08:05 51°14.736 2°51.261 2.1 23 16.8 102000 47
2010-09-10 08:06 51°14.753 2°51.328 0.2 27 17.1 102000 47
2010-09-10 08:07 51°14.772 2°51.399 2.4 22 17.3 102000 49
2010-09-10 08:08 51°14.79 2°51.47 2.9 22 17.4 102000 49
2010-09-10 08:09 51°14.811 2°51.546 3.9 25 17.4 102000 46
2010-09-10 08:10 51°14.829 2°51.617 3.1 24 17.2 102000 45
2010-09-10 08:11 51°14.848 2°51.687 4.3 21 17.2 102000 47
2010-09-10 08:12 51°14.864 2°51.754 3.3 22 17 102000 48
2010-09-10 08:13 51°14.878 2°51.824 4.8 44 16.9 102000 46
2010-09-10 08:14 51°14.873 2°51.903 4.4 33 16.8 102010 46
2010-09-10 08:15 51°14.845 2°51.969 5.1 23 16.8 102000 48
2010-09-10 08:16 51°14.793 2°52.002 6.2 6 16.8 102000 48
2010-09-10 08:17 51°14.733 2°51.992 5.9 345 16.7 102000 46
2010-09-10 08:18 51°14.68 2°51.933 6.2 330 16.8 101990 46
2010-09-10 08:19 51°14.65 2°51.877 7 323 16.7 101990 48
2010-09-10 08:20 51°14.627 2°51.809 8.2 321 16.7 102000 47
2010-09-10 08:21 51°14.595 2°51.597 10.5 318 16.6 101990 48
2010-09-10 08:22 51°14.582 2°51.317 9.1 25 16.7 101980 48
2010-09-10 08:23 51°14.591 2°51.12 7.4 21 16.6 101990 47
2010-09-10 08:24 51°14.615 2°51.017 5.8 253 16.7 101990 46
2010-09-10 08:25 51°14.633 2°50.95 6.7 255 16.7 102010 46
2010-09-10 08:26 51°14.641 2°50.896 6.7 256 16.7 102020 45
2010-09-10 08:27 51°14.641 2°50.847 5.5 256 16.8 102010 46
2010-09-10 08:28 51°14.636 2°50.805 7 257 16.7 102020 46
2010-09-10 08:29 51°14.63 2°50.766 6.2 253 16.7 102020 48
2010-09-10 08:30 51°14.624 2°50.685 7.9 323 16.8 102010 48
2010-09-10 08:31 51°14.549 2°50.61 7.1 2 16.7 102000 46
2010-09-10 08:32 51°14.504 2°50.728 3.2 28 16.7 102010 48
2010-09-10 08:33 51°14.531 2°50.962 2.5 23 16.6 102010 46
2010-09-10 08:34 51°14.558 2°51.247 3.4 13 16.6 102010 45
2010-09-10 08:35 51°14.58 2°51.546 3.6 10 16.6 102010 49
2010-09-10 08:36 51°14.607 2°51.856 3.6 9 16.6 102020 48
2010-09-10 08:37 51°14.633 2°52.167 3.3 11 16.6 102020 49
2010-09-10 08:38 51°14.657 2°52.469 3.8 18 16.7 102020 49
2010-09-10 08:39 51°14.676 2°52.706 3 33 16.6 102010 46
2010-09-10 08:40 51°14.71 2°52.914 0.8 21 16.6 102020 49
2010-09-10 08:41 51°14.757 2°53.11 1.9 38 16.7 102010 46
2010-09-10 08:42 51°14.815 2°53.209 4.5 26 16.7 102010 45
2010-09-10 08:43 51°14.855 2°53.189 3.9 264 16.7 102020 46
2010-09-10 08:44 51°14.851 2°53.169 5.9 261 16.7 102010 46
2010-09-10 08:45 51°14.843 2°53.15 8 258 16.7 102020 48
2010-09-10 08:46 51°14.835 2°53.133 4.8 262 16.7 102020 48
2010-09-10 08:47 51°14.826 2°53.119 5.7 262 16.7 102020 46
2010-09-10 08:48 51°14.816 2°53.105 5.3 266 16.7 102020 46
2010-09-10 08:49 51°14.804 2°53.09 6.2 30 16.7 102020 47
2010-09-10 08:50 51°14.793 2°53.076 5.7 270 16.7 102020 48
2010-09-10 08:51 51°14.783 2°53.062 4.9 269 16.7 102020 47
2010-09-10 08:52 51°14.772 2°53.047 5.8 269 16.7 102020 46
2010-09-10 08:53 51°14.761 2°53.032 6.3 18 16.7 102020 46
2010-09-10 08:54 51°14.773 2°53.006 5.3 261 16.7 102020 49
2010-09-10 08:55 51°14.884 2°52.942 6.2 256 16.7 102020 47
2010-09-10 08:56 51°15.063 2°52.871 6.7 249 16.7 102010 47
2010-09-10 08:57 51°15.257 2°52.787 6 23 16.7 102010 48
2010-09-10 08:58 51°15.458 2°52.689 6 23 16.7 102010 46
2010-09-10 08:59 51°15.659 2°52.637 5.8 250 16.7 102010 46
2010-09-10 09:00 51°15.856 2°52.551 7.6 27 16.7 102010 48
2010-09-10 09:01 51°16.052 2°52.443 6.3 21 16.7 102010 48
2010-09-10 09:02 51°16.249 2°52.336 6.9 21 16.7 102010 46
2010-09-10 09:03 51°16.443 2°52.232 7.6 244 16.7 102000 47
2010-09-10 09:04 51°16.636 2°52.137 3.3 22 16.8 102010 46
2010-09-10 09:05 51°16.832 2°52.136 5.7 253 16.8 102020 49
2010-09-10 09:06 51°17.026 2°52.164 7.8 254 16.8 102020 47
2010-09-10 09:07 51°17.22 2°52.186 7.3 255 16.8 102020 47
2010-09-10 09:08 51°17.415 2°52.217 6.2 256 16.8 102020 47
2010-09-10 09:09 51°17.602 2°52.269 4 259 16.8 102020 46
2010-09-10 09:10 51°17.789 2°52.349 3.8 258 16.8 102020 46
2010-09-10 09:11 51°17.965 2°52.465 2.6 259 16.8 102020 46
2010-09-10 09:12 51°18.13 2°52.596 3.2 260 16.8 102020 50
2010-09-10 09:13 51°18.304 2°52.719 3.5 252 16.9 102020 47
2010-09-10 09:14 51°18.472 2°52.852 1.3 20 16.8 102020 47
2010-09-10 09:15 51°18.6 2°53.068 0.1 24 16.9 102020 47
2010-09-10 09:16 51°18.707 2°53.31 -999 26 16.9 102020 48
2010-09-10 09:17 51°18.822 2°53.551 0.1 22 16.9 102020 48
2010-09-10 09:18 51°18.93 2°53.781 1 22 17 102020 48
2010-09-10 09:19 51°19.046 2°54.012 0.1 21 17 102020 48
2010-09-10 09:20 51°19.192 2°54.118 4.2 257 17 102010 47
2010-09-10 09:21 51°19.293 2°54.108 4.9 266 17 102010 47
2010-09-10 09:22 51°19.327 2°54.077 5.4 264 16.9 102010 48
2010-09-10 09:23 51°19.323 2°54.044 8.1 258 16.9 102000 47
2010-09-10 09:24 51°19.317 2°54.006 7.8 253 16.9 102000 49
2010-09-10 09:25 51°19.306 2°53.982 7.5 258 16.9 102000 48
2010-09-10 09:26 51°19.294 2°53.958 4.8 265 17 102010 49
2010-09-10 09:27 51°19.281 2°53.936 4.1 264 17 102020 49
2010-09-10 09:28 51°19.268 2°53.912 6.7 267 17 102010 46
2010-09-10 09:29 51°19.256 2°53.889 5.3 267 16.9 102000 47
2010-09-10 09:30 51°19.243 2°53.864 3.8 265 17 102010 48
2010-09-10 09:31 51°19.231 2°53.839 4.7 267 17 102010 47
2010-09-10 09:32 51°19.219 2°53.815 5.5 265 17 102010 46
2010-09-10 09:33 51°19.207 2°53.79 4.4 266 17.1 102010 48
2010-09-10 09:34 51°19.194 2°53.767 5.5 265 17 102020 49
2010-09-10 09:35 51°19.181 2°53.743 5.9 268 17 102010 46
2010-09-10 09:36 51°19.168 2°53.72 5.6 267 17 102010 47
2010-09-10 09:37 51°19.156 2°53.697 7.6 267 16.9 102000 47
2010-09-10 09:38 51°19.144 2°53.673 5.6 265 16.8 102000 45
2010-09-10 09:39 51°19.133 2°53.648 6.1 267 16.8 102000 46
2010-09-10 09:40 51°19.122 2°53.623 5.4 266 16.8 102010 49
2010-09-10 09:41 51°19.111 2°53.597 4.3 265 16.9 102000 47
2010-09-10 09:42 51°19.1 2°53.572 4.3 266 16.7 102010 48
2010-09-10 09:43 51°19.088 2°53.547 3.4 266 16.7 102010 48
2010-09-10 09:44 51°19.075 2°53.523 3.9 270 16.7 102020 46
2010-09-10 09:45 51°19.062 2°53.498 3.9 265 16.7 102020 46
2010-09-10 09:46 51°19.049 2°53.473 3.4 263 16.8 102020 47
2010-09-10 09:47 51°19.035 2°53.449 5 262 16.9 102020 46
2010-09-10 09:48 51°19.021 2°53.425 4.5 264 16.8 102010 46
2010-09-10 09:49 51°19.007 2°53.4 5.9 270 16.8 102020 48
2010-09-10 09:50 51°18.993 2°53.376 6.8 267 16.7 102020 46
2010-09-10 09:51 51°18.98 2°53.359 5.5 269 16.8 102020 46
2010-09-10 09:52 51°18.961 2°53.334 5.8 267 16.8 102020 47
2010-09-10 09:53 51°18.949 2°53.311 5.5 21 16.8 102020 46
2010-09-10 09:54 51°18.936 2°53.288 5.1 263 16.9 102030 45
2010-09-10 09:55 51°18.951 2°53.249 6 27 16.9 102010 47
2010-09-10 09:56 51°18.982 2°53.309 5.6 21 17 102000 46
2010-09-10 09:57 51°18.965 2°53.499 5.2 21 17 102000 46
2010-09-10 09:58 51°18.953 2°53.758 5.6 14 17 102000 47
2010-09-10 09:59 51°18.936 2°54.028 5.5 12 17 102000 48
2010-09-10 10:00 51°18.932 2°54.294 3.8 13 17 102000 47
2010-09-10 10:01 51°18.939 2°54.501 2.5 45 17 102000 46
2010-09-10 10:02 51°18.994 2°54.508 4 265 17.1 102010 45
2010-09-10 10:03 51°19.029 2°54.431 8.2 250 17.1 102000 46
2010-09-10 10:04 51°19.04 2°54.331 8.1 24 17 101990 46
2010-09-10 10:05 51°19.053 2°54.229 7.5 26 17 101980 48
2010-09-10 10:06 51°19.063 2°54.127 8.2 22 17 101970 47
2010-09-10 10:07 51°19.074 2°54.026 8.2 23 17.1 101980 46
2010-09-10 10:08 51°19.08 2°53.921 8.5 22 17.2 101990 48
2010-09-10 10:09 51°19.086 2°53.814 7.9 23 17.1 101970 47
2010-09-10 10:10 51°19.092 2°53.706 8.2 246 17.2 101980 45
2010-09-10 10:11 51°19.098 2°53.597 8.7 23 17.2 101970 46
2010-09-10 10:12 51°19.103 2°53.486 8.8 22 17.1 101970 46
2010-09-10 10:13 51°19.108 2°53.374 6.1 23 17.1 101970 47
2010-09-10 10:14 51°19.121 2°53.266 6.9 248 17.2 101970 48
2010-09-10 10:15 51°19.146 2°53.172 4 265 17.1 101970 46
2010-09-10 10:16 51°19.189 2°53.182 4.9 39 17.2 101990 47
2010-09-10 10:17 51°19.21 2°53.249 5.1 25 17.2 101990 46
2010-09-10 10:18 51°19.225 2°53.333 5 33 17.1 101980 45
2010-09-10 10:19 51°19.238 2°53.446 4.3 32 17.1 101980 46
2010-09-10 10:20 51°19.257 2°53.581 3.5 26 17.1 101980 46
2010-09-10 10:21 51°19.286 2°53.783 4.9 24 17.1 101980 46
2010-09-10 10:22 51°19.33 2°54.065 4.6 14 17.1 101970 46
2010-09-10 10:23 51°19.375 2°54.361 4.7 12 17.1 101970 46
2010-09-10 10:24 51°19.415 2°54.658 5.6 15 17.1 101970 46
2010-09-10 10:25 51°19.45 2°54.959 5.1 9 17.1 101970 48
2010-09-10 10:26 51°19.494 2°55.262 3.8 15 17.1 101970 45
2010-09-10 10:27 51°19.542 2°55.56 4.5 14 17.1 101970 48
2010-09-10 10:28 51°19.588 2°55.857 4.2 12 17.1 101970 46
2010-09-10 10:29 51°19.633 2°56.154 4.6 13 17.1 101970 48
2010-09-10 10:30 51°19.679 2°56.457 3.9 6 17.1 101970 47
2010-09-10 10:31 51°19.725 2°56.763 3.9 1 17.1 101960 49
2010-09-10 10:32 51°19.771 2°57.068 5.8 16 17.1 101960 46
2010-09-10 10:33 51°19.815 2°57.372 5 9 17.1 101970 48
2010-09-10 10:34 51°19.861 2°57.674 5.4 11 17.1 101970 46
2010-09-10 10:35 51°19.907 2°57.977 4.9 11 17.1 101970 46
2010-09-10 10:36 51°19.953 2°58.284 4.7 11 17.1 101970 46
2010-09-10 10:37 51°20 2°58.595 4.5 15 17.1 101970 47
2010-09-10 10:38 51°20.048 2°58.903 5.6 13 17.1 101980 47
2010-09-10 10:39 51°20.095 2°59.212 5.1 16 17.1 101970 48
2010-09-10 10:40 51°20.147 2°59.523 5.6 14 17.1 101980 47
2010-09-10 10:41 51°20.197 2°59.834 5.1 25 17.1 101980 46
2010-09-10 10:42 51°20.247 3°0.142 4.7 17 17.1 101980 47
2010-09-10 10:43 51°20.297 3°0.453 4.9 16 17.1 101980 48
2010-09-10 10:44 51°20.347 3°0.769 5.4 15 17.1 101970 47
2010-09-10 10:45 51°20.4 3°1.081 4.1 11 17.1 101980 48
2010-09-10 10:46 51°20.456 3°1.397 4.9 14 17.1 101980 48
2010-09-10 10:47 51°20.508 3°1.714 5.4 18 17.1 101970 46
2010-09-10 10:48 51°20.563 3°2.034 4.3 16 17.1 101970 48
2010-09-10 10:49 51°20.616 3°2.348 4.6 17 17.1 101970 48
2010-09-10 10:50 51°20.67 3°2.659 4.8 20 17.1 101970 45
2010-09-10 10:51 51°20.721 3°2.975 5.4 18 17.1 101980 48
2010-09-10 10:52 51°20.771 3°3.293 4.8 16 17.1 101970 46
2010-09-10 10:53 51°20.823 3°3.611 3.5 12 17.1 101970 48
2010-09-10 10:54 51°20.877 3°3.93 5.7 21 17.2 101970 46
2010-09-10 10:55 51°20.929 3°4.253 5.1 19 17.1 101970 46
2010-09-10 10:56 51°20.984 3°4.573 3.8 15 17.1 101970 48
2010-09-10 10:57 51°21.036 3°4.889 5.1 21 17.1 101970 46
2010-09-10 10:58 51°21.089 3°5.206 4.8 20 17.1 101970 47
2010-09-10 10:59 51°21.139 3°5.527 4.6 23 17.2 101970 47
2010-09-10 11:00 51°21.193 3°5.842 4.4 17 17.2 101970 48
2010-09-10 11:01 51°21.248 3°6.159 4.4 8 17.2 101970 48
2010-09-10 11:02 51°21.294 3°6.447 3.7 29 17.2 101970 48
2010-09-10 11:03 51°21.317 3°6.62 3.6 33 17.2 101970 46
2010-09-10 11:04 51°21.365 3°6.689 4.5 25 17.3 101980 46
2010-09-10 11:05 51°21.421 3°6.714 5.5 24 17.2 101980 47
2010-09-10 11:06 51°21.434 3°6.717 6.7 269 17.2 101980 44
2010-09-10 11:07 51°21.433 3°6.715 5.5 264 17.3 101960 46
2010-09-10 11:08 51°21.428 3°6.713 7.5 261 17.2 101960 47
2010-09-10 11:09 51°21.426 3°6.716 6.3 257 17.2 101960 46
2010-09-10 11:10 51°21.419 3°6.722 5.9 261 17.3 101960 47
2010-09-10 11:11 51°21.417 3°6.731 5.9 270 17.3 101960 46
2010-09-10 11:12 51°21.41 3°6.74 7 22 17.3 101960 46
2010-09-10 11:13 51°21.402 3°6.749 7.3 269 17.2 101950 47
2010-09-10 11:14 51°21.394 3°6.758 6.2 21 17.3 101960 46
2010-09-10 11:15 51°21.387 3°6.766 6 22 17.3 101960 46
2010-09-10 11:16 51°21.381 3°6.774 6.1 270 17.3 101960 46
2010-09-10 11:17 51°21.373 3°6.783 6.2 22 17.3 101960 47
2010-09-10 11:18 51°21.368 3°6.792 6.4 272 17.3 101950 45
2010-09-10 11:19 51°21.379 3°6.781 9 255 17.2 101960 46
2010-09-10 11:20 51°21.378 3°6.712 9 321 17.2 101950 46
2010-09-10 11:21 51°21.312 3°6.672 9.1 344 17.3 101940 46
2010-09-10 11:22 51°21.199 3°6.645 10.2 336 17.3 101930 45
2010-09-10 11:23 51°21.087 3°6.547 9.2 331 17.3 101960 45
2010-09-10 11:24 51°20.977 3°6.428 11.2 330 17.3 101950 46
2010-09-10 11:25 51°20.866 3°6.309 10.3 334 17.3 101950 47
2010-09-10 11:26 51°20.74 3°6.247 11.1 341 17.3 101940 46
2010-09-10 11:27 51°20.612 3°6.198 10.2 336 17.3 101930 46
2010-09-10 11:28 51°20.55 3°6.115 8.9 24 17.3 101960 45
2010-09-10 11:29 51°20.554 3°6.032 8.3 247 17.4 101950 46
2010-09-10 11:30 51°20.579 3°5.941 7.5 244 17.4 101960 45
2010-09-10 11:31 51°20.589 3°5.901 5.7 262 17.4 101970 46
2010-09-10 11:32 51°20.595 3°5.901 7.2 262 17.3 101970 45
2010-09-10 11:33 51°20.598 3°5.907 5.8 267 17.4 101970 46
2010-09-10 11:34 51°20.602 3°5.914 7.5 261 17.4 101970 45
2010-09-10 11:35 51°20.603 3°5.926 5.1 260 17.4 101970 46
2010-09-10 11:36 51°20.604 3°5.941 6.4 268 17.4 101970 46
2010-09-10 11:37 51°20.604 3°5.959 5.5 265 17.4 101970 45
2010-09-10 11:38 51°20.603 3°5.979 5.7 269 17.4 101970 45
2010-09-10 11:39 51°20.626 3°5.981 5.9 258 17.4 101970 47
2010-09-10 11:40 51°20.726 3°5.917 5.3 262 17.4 101950 45
2010-09-10 11:41 51°20.814 3°5.963 5.8 41 17.4 101960 48
2010-09-10 11:42 51°20.816 3°6.086 8.4 12 17.4 101960 46
2010-09-10 11:43 51°20.751 3°6.192 6.7 14 17.4 101950 46
2010-09-10 11:44 51°20.719 3°6.288 7 12 17.4 101960 45
2010-09-10 11:45 51°20.692 3°6.368 7.5 17 17.3 101950 46
2010-09-10 11:46 51°20.668 3°6.44 6.9 14 17.3 101950 46
2010-09-10 11:47 51°20.647 3°6.509 8 16 17.4 101960 46
2010-09-10 11:48 51°20.631 3°6.58 7.1 16 17.3 101950 46
2010-09-10 11:49 51°20.613 3°6.65 6.4 15 17.3 101960 45
2010-09-10 11:50 51°20.597 3°6.721 6.4 17 17.3 101960 47
2010-09-10 11:51 51°20.579 3°6.798 6 17 17.4 101950 46
2010-09-10 11:52 51°20.558 3°6.885 5.8 15 17.3 101950 45
2010-09-10 11:53 51°20.536 3°6.975 6.8 13 17.4 101950 47
2010-09-10 11:54 51°20.515 3°7.064 6 9 17.3 101950 44
2010-09-10 11:55 51°20.496 3°7.156 7.4 12 17.3 101940 46
2010-09-10 11:56 51°20.478 3°7.244 7.7 18 17.3 101940 45
2010-09-10 11:57 51°20.461 3°7.326 6.4 12 17.3 101940 45
2010-09-10 11:58 51°20.441 3°7.4 6 -999 17.4 101940 47
2010-09-10 11:59 51°20.423 3°7.459 5.5 359 17.3 101940 46
2010-09-10 12:00 51°20.412 3°7.509 6.1 -999 17.3 101940 46
2010-09-10 12:01 51°20.408 3°7.554 5.2 3 17.3 101950 46
2010-09-10 12:02 51°20.396 3°7.645 6 13 17.3 101940 46
2010-09-10 12:03 51°20.343 3°7.819 9 359 17.3 101930 46
2010-09-10 12:04 51°20.269 3°7.995 7.6 358 17.3 101920 47
2010-09-10 12:05 51°20.201 3°8.16 7.6 4 17.3 101940 47
2010-09-10 12:06 51°20.148 3°8.295 6.3 -999 17.3 101930 46
2010-09-10 12:07 51°20.099 3°8.391 6.8 340 17.3 101930 45
2010-09-10 12:08 51°20.056 3°8.385 7.1 26 17.3 101920 47
2010-09-10 12:09 51°20.057 3°8.357 6.4 249 17.4 101920 47
2010-09-10 12:10 51°20.071 3°8.382 3.5 264 17.4 101930 44
2010-09-10 12:11 51°20.087 3°8.418 5.3 28 17.5 101930 47
2010-09-10 12:12 51°20.103 3°8.458 6.4 29 17.4 101930 47
2010-09-10 12:13 51°20.119 3°8.5 5.4 20 17.4 101930 45
2010-09-10 12:14 51°20.134 3°8.544 5.4 26 17.4 101940 45
2010-09-10 12:15 51°20.151 3°8.588 5.8 26 17.4 101930 47
2010-09-10 12:16 51°20.169 3°8.632 6.1 24 17.4 101920 46
2010-09-10 12:17 51°20.189 3°8.676 5.8 30 17.4 101930 45
2010-09-10 12:18 51°20.21 3°8.719 4.6 267 17.4 101920 44
2010-09-10 12:19 51°20.259 3°8.728 4.7 257 17.4 101910 45
2010-09-10 12:20 51°20.376 3°8.666 6.9 247 17.5 101920 47
2010-09-10 12:21 51°20.421 3°8.554 7.3 28 17.5 101910 46
2010-09-10 12:22 51°20.392 3°8.532 8.2 333 17.5 101900 45
2010-09-10 12:23 51°20.341 3°8.516 6.9 325 17.5 101910 47
2010-09-10 12:24 51°20.3 3°8.481 8.2 327 17.6 101910 47
2010-09-10 12:25 51°20.258 3°8.445 8.7 323 17.6 101910 47
2010-09-10 12:26 51°20.218 3°8.412 8.3 325 17.5 101900 46
2010-09-10 12:27 51°20.178 3°8.379 8.3 323 17.5 101910 45
2010-09-10 12:28 51°20.137 3°8.352 8.2 326 17.6 101900 47
2010-09-10 12:29 51°20.096 3°8.325 8.8 321 17.6 101900 47
2010-09-10 12:30 51°20.057 3°8.3 8.3 326 17.6 101900 45
2010-09-10 12:31 51°20.016 3°8.277 7 321 17.6 101900 47
2010-09-10 12:32 51°19.977 3°8.251 7.8 325 17.6 101900 46
2010-09-10 12:33 51°19.938 3°8.228 8.8 330 17.7 101900 46
2010-09-10 12:34 51°19.895 3°8.21 8.6 323 17.7 101890 45
2010-09-10 12:35 51°19.852 3°8.194 7.8 320 17.6 101890 47
2010-09-10 12:36 51°19.823 3°8.159 6.5 22 17.7 101890 46
2010-09-10 12:37 51°19.809 3°8.113 7.6 27 17.7 101880 45
2010-09-10 12:38 51°19.817 3°8.062 6.2 21 17.7 101890 46
2010-09-10 12:39 51°19.846 3°8.016 6.6 245 17.7 101890 46
2010-09-10 12:40 51°19.886 3°7.991 6.2 250 17.7 101890 47
2010-09-10 12:41 51°19.915 3°7.996 5.6 22 17.8 101890 45
2010-09-10 12:42 51°19.94 3°8.022 6.9 22 17.8 101890 46
2010-09-10 12:43 51°19.966 3°8.062 6.2 252 17.8 101880 46
2010-09-10 12:44 51°19.995 3°8.111 6.5 250 17.8 101890 46
2010-09-10 12:45 51°20.022 3°8.166 6.9 257 17.8 101890 45
2010-09-10 12:46 51°20.051 3°8.223 4.7 260 17.9 101890 47
2010-09-10 12:47 51°20.08 3°8.285 4 261 17.9 101900 47
2010-09-10 12:48 51°20.111 3°8.34 5 260 17.9 101890 46
2010-09-10 12:49 51°20.16 3°8.269 7.2 23 17.9 101890 47
2010-09-10 12:50 51°20.188 3°8.087 10.1 28 17.9 101870 45
2010-09-10 12:51 51°20.156 3°7.865 10.1 319 17.9 101860 46
2010-09-10 12:52 51°20.09 3°7.624 11 321 17.9 101870 46
2010-09-10 12:53 51°20.021 3°7.386 10.9 320 17.9 101880 47
2010-09-10 12:54 51°19.949 3°7.147 11.1 319 17.9 101870 46
2010-09-10 12:55 51°19.88 3°6.905 11.9 320 17.9 101860 47
2010-09-10 12:56 51°19.808 3°6.667 13.3 318 17.9 101860 47
2010-09-10 12:57 51°19.725 3°6.441 11.5 317 18 101860 47
2010-09-10 12:58 51°19.644 3°6.214 11.1 322 18 101870 46
2010-09-10 12:59 51°19.563 3°5.987 11.7 317 18 101870 46
2010-09-10 13:00 51°19.483 3°5.759 11.1 317 18.1 101870 46
2010-09-10 13:01 51°19.404 3°5.532 11.2 320 18.1 101870 47
2010-09-10 13:02 51°19.325 3°5.304 10.6 322 18.1 101870 46
2010-09-10 13:03 51°19.245 3°5.077 10.5 325 18.1 101870 47
2010-09-10 13:04 51°19.165 3°4.849 11 320 18.1 101870 47
2010-09-10 13:05 51°19.084 3°4.619 10.3 322 18.1 101870 47
2010-09-10 13:06 51°19.004 3°4.389 12 318 18.2 101870 46
2010-09-10 13:07 51°18.922 3°4.155 11.2 322 18.2 101870 46
2010-09-10 13:08 51°18.841 3°3.921 12.9 323 18.2 101870 46
2010-09-10 13:09 51°18.773 3°3.674 10.7 323 18.2 101870 47
2010-09-10 13:10 51°18.725 3°3.41 10.7 321 18.2 101870 47
2010-09-10 13:11 51°18.678 3°3.147 11.4 321 18.2 101880 47
2010-09-10 13:12 51°18.627 3°2.881 12.2 322 18.2 101870 46
2010-09-10 13:13 51°18.579 3°2.618 11.8 321 18.2 101870 47
2010-09-10 13:14 51°18.524 3°2.346 11.8 323 18.2 101860 46
2010-09-10 13:15 51°18.471 3°2.076 11.2 322 18.2 101860 46
2010-09-10 13:16 51°18.417 3°1.798 10.5 322 18.2 101870 47
2010-09-10 13:17 51°18.364 3°1.531 10.5 324 18.2 101870 47
2010-09-10 13:18 51°18.309 3°1.254 10.2 326 18.2 101880 46
2010-09-10 13:19 51°18.307 3°1.013 9.2 318 18.2 101880 47
2010-09-10 13:20 51°18.329 3°0.774 11 318 18.2 101880 47
2010-09-10 13:21 51°18.35 3°0.536 11.1 319 18.2 101870 46
2010-09-10 13:22 51°18.371 3°0.295 11.1 317 18.1 101870 45
2010-09-10 13:23 51°18.393 3°0.051 10.7 318 18.2 101870 47
2010-09-10 13:24 51°18.414 2°59.813 10.9 319 18.2 101870 47
2010-09-10 13:25 51°18.42 2°59.572 11.8 322 18.1 101870 47
2010-09-10 13:26 51°18.408 2°59.343 11.4 322 18.1 101870 46
2010-09-10 13:27 51°18.372 2°59.126 10.6 325 18.2 101880 47
2010-09-10 13:28 51°18.324 2°58.915 11.1 326 18.1 101890 47
2010-09-10 13:29 51°18.268 2°58.714 13.1 328 18.1 101890 46
2010-09-10 13:30 51°18.209 2°58.498 11.6 328 18.1 101880 46
2010-09-10 13:31 51°18.149 2°58.297 12.9 327 18.1 101880 47
2010-09-10 13:32 51°18.087 2°58.097 13 327 18 101870 47
2010-09-10 13:33 51°18.027 2°57.898 14.1 329 18.1 101870 47
2010-09-10 13:34 51°17.965 2°57.7 13.3 329 18.1 101870 46
2010-09-10 13:35 51°17.904 2°57.499 13 330 18.1 101870 46
2010-09-10 13:36 51°17.832 2°57.307 12.3 329 18.1 101860 46
2010-09-10 13:37 51°17.756 2°57.12 13.9 329 18.1 101860 46
2010-09-10 13:38 51°17.676 2°56.936 12 329 18.1 101870 45
2010-09-10 13:39 51°17.598 2°56.75 13.2 329 18.1 101870 46
2010-09-10 13:40 51°17.522 2°56.572 14 329 18.1 101860 46
2010-09-10 13:41 51°17.435 2°56.398 14.6 329 18.1 101860 46
2010-09-10 13:42 51°17.344 2°56.236 12.4 333 18.2 101850 46
2010-09-10 13:43 51°17.245 2°56.078 11.9 332 18.2 101860 46
2010-09-10 13:44 51°17.142 2°55.933 12.4 331 18.2 101860 47
2010-09-10 13:45 51°17.037 2°55.789 11.7 338 18.1 101870 47
2010-09-10 13:46 51°16.918 2°55.654 12.4 338 18.1 101870 46
2010-09-10 13:47 51°16.78 2°55.562 13.1 339 18.1 101860 47
2010-09-10 13:48 51°16.627 2°55.49 11.4 340 18.1 101850 46
2010-09-10 13:49 51°16.475 2°55.414 12.4 338 18.1 101850 47
2010-09-10 13:50 51°16.317 2°55.347 11.9 340 18 101850 47
2010-09-10 13:51 51°16.154 2°55.284 11.5 340 18 101850 47
2010-09-10 13:52 51°15.993 2°55.22 12.3 339 18 101850 47
2010-09-10 13:53 51°15.835 2°55.159 12 339 18 101860 47
2010-09-10 13:54 51°15.677 2°55.089 11.6 341 18 101870 45
2010-09-10 13:55 51°15.511 2°55.014 10.8 340 18 101870 46
2010-09-10 13:56 51°15.34 2°54.947 12 342 18.1 101860 47
2010-09-10 13:57 51°15.162 2°54.919 12.3 342 18.1 101850 45
2010-09-10 13:58 51°14.99 2°54.938 13.1 344 18.2 101840 44
2010-09-10 13:59 51°14.81 2°54.967 10 343 18.3 101850 46
2010-09-10 14:00 51°14.634 2°55.022 12.6 347 18.4 101840 46
2010-09-10 14:01 51°14.459 2°55.113 12.1 352 18.4 101850 46
2010-09-10 14:02 51°14.29 2°55.269 8.8 355 18.5 101840 44
2010-09-10 14:03 51°14.152 2°55.389 7.9 350 18.6 101860 44
2010-09-10 14:04 51°14.046 2°55.467 5.3 338 18.8 101860 44
2010-09-10 14:05 51°13.945 2°55.543 10.2 354 18.9 101870 44
2010-09-10 14:06 51°13.829 2°55.631 6.5 349 19 101870 44
2010-09-10 14:07 51°13.754 2°55.733 10.5 1 19 101870 43
2010-09-10 14:08 51°13.701 2°55.838 6.4 359 18.9 101860 43
2010-09-10 14:09 51°13.666 2°55.94 4.6 27 18.9 101880 42